createdAt,value
2023-03-06T00:04:20.119Z,-53
2023-03-06T00:14:26.526Z,-57
2023-03-06T00:24:32.841Z,-49
2023-03-06T00:34:39.160Z,-51
2023-03-06T00:44:45.543Z,-53
2023-03-06T00:54:51.827Z,-53
2023-03-06T01:04:58.208Z,-57
2023-03-06T01:15:04.549Z,-54
2023-03-06T01:25:10.903Z,-59
2023-03-06T01:35:17.278Z,-57
2023-03-06T01:45:23.604Z,-59
2023-03-06T01:55:29.909Z,-51
2023-03-06T02:05:36.304Z,-53
2023-03-06T02:15:42.622Z,-46
2023-03-06T02:25:48.998Z,-57
2023-03-06T02:35:56.945Z,-53
2023-03-06T02:46:03.373Z,-53
2023-03-06T02:56:09.579Z,-55
2023-03-06T03:06:15.984Z,-57
2023-03-06T03:16:22.273Z,-57
2023-03-06T03:26:28.681Z,-57
2023-03-06T03:36:36.587Z,-57
2023-03-06T03:46:42.961Z,-53
2023-03-06T03:56:49.275Z,-53
2023-03-06T04:06:55.642Z,-55
2023-03-06T04:17:01.965Z,-59
2023-03-06T04:27:08.337Z,-54
2023-03-06T04:37:15.076Z,-49
2023-03-06T04:47:21.031Z,-55
2023-03-06T04:57:27.390Z,-57
2023-03-06T05:07:33.716Z,-59
2023-03-06T05:17:40.042Z,-59
2023-03-06T05:27:46.440Z,-57
2023-03-06T05:37:52.755Z,-57
2023-03-06T05:47:59.143Z,-55
2023-03-06T05:58:05.435Z,-53
2023-03-06T06:08:11.794Z,-53
2023-03-06T06:18:18.138Z,-54
2023-03-06T06:28:24.492Z,-53
2023-03-06T06:38:30.816Z,-49
2023-03-06T06:48:37.185Z,-52
2023-03-06T06:58:43.523Z,-53
2023-03-06T07:08:49.855Z,-51
2023-03-06T07:18:56.208Z,-59
2023-03-06T07:29:02.570Z,-53
2023-03-06T07:39:08.900Z,-54
2023-03-06T07:49:15.273Z,-54
2023-03-06T07:59:21.591Z,-49
2023-03-06T08:09:27.955Z,-47
2023-03-06T08:19:34.285Z,-49
2023-03-06T08:29:40.655Z,-49
2023-03-06T08:39:46.967Z,-49
2023-03-06T08:49:53.334Z,-49
2023-03-06T09:00:01.273Z,-48
2023-03-06T09:10:09.317Z,-47
2023-03-06T09:20:15.554Z,-46
2023-03-06T09:30:21.941Z,-51
2023-03-06T09:40:28.261Z,-45
2023-03-06T09:50:34.606Z,-49
2023-03-06T10:00:40.926Z,-47
2023-03-06T10:10:47.317Z,-47
2023-03-06T10:20:53.654Z,-49
2023-03-06T10:31:01.710Z,-49
2023-03-06T10:41:07.921Z,-45
2023-03-06T10:51:18.295Z,-47
2023-03-06T11:01:20.771Z,-49
2023-03-06T11:11:37.127Z,-49
2023-03-06T11:21:33.291Z,-49
2023-03-06T11:31:39.754Z,-51
2023-03-06T11:41:45.988Z,-53
2023-03-06T11:51:52.384Z,-49
2023-03-06T12:01:58.710Z,-49
2023-03-06T12:12:05.059Z,-48
2023-03-06T12:22:11.445Z,-53
2023-03-06T12:32:17.881Z,-53
2023-03-06T12:42:25.685Z,-51
2023-03-06T12:52:32.063Z,-51
2023-03-06T13:02:38.426Z,-47
2023-03-06T13:12:44.758Z,-47
2023-03-06T13:22:51.058Z,-51
2023-03-06T13:32:57.441Z,-53
2023-03-06T13:43:03.749Z,-55
2023-03-06T13:53:10.138Z,-55
2023-03-06T14:03:16.439Z,-51
2023-03-06T14:13:22.823Z,-49
2023-03-06T14:23:29.191Z,-48
2023-03-06T14:33:35.539Z,-51
2023-03-06T14:43:43.451Z,-46
2023-03-06T14:53:49.813Z,-49
2023-03-06T15:03:56.121Z,-53
2023-03-06T15:14:04.105Z,-51
2023-03-06T15:24:10.397Z,-51
2023-03-06T15:34:16.791Z,-53
2023-03-06T15:44:23.108Z,-53
2023-03-06T15:54:31.874Z,-47
2023-03-06T16:04:37.779Z,-48
2023-03-06T16:14:43.763Z,-48
2023-03-06T16:24:50.084Z,-47
2023-03-06T16:34:56.481Z,-49
2023-03-06T16:45:02.781Z,-48
2023-03-06T16:55:09.138Z,-53
2023-03-06T17:05:15.467Z,-51
2023-03-06T17:15:21.836Z,-47
2023-03-06T17:25:28.157Z,-47
2023-03-06T17:35:34.536Z,-49
2023-03-06T17:45:40.842Z,-53
2023-03-06T17:55:47.205Z,-53
2023-03-06T18:05:53.526Z,-48
2023-03-06T18:15:59.956Z,-51
2023-03-06T18:26:08.293Z,-51
2023-03-06T18:36:12.618Z,-51
2023-03-06T18:46:18.922Z,-49
2023-03-06T18:56:26.905Z,-51
2023-03-06T19:06:34.814Z,-49
2023-03-06T19:16:42.946Z,-51
2023-03-06T19:26:50.713Z,-49
2023-03-06T19:36:57.082Z,-49
2023-03-06T19:47:03.410Z,-47
2023-03-06T19:57:09.792Z,-51
2023-03-06T20:07:16.100Z,-49
2023-03-06T20:17:22.457Z,-47
2023-03-06T20:27:28.795Z,-48
2023-03-06T20:37:35.169Z,-49
2023-03-06T20:47:41.486Z,-51
2023-03-06T20:57:47.849Z,-53
2023-03-06T21:07:54.168Z,-51
2023-03-06T21:18:00.551Z,-46
2023-03-06T21:28:06.857Z,-49
2023-03-06T21:38:13.240Z,-48
2023-03-06T21:48:19.544Z,-48
2023-03-06T21:58:25.936Z,-51
2023-03-06T22:08:33.853Z,-51
2023-03-06T22:18:41.808Z,-48
2023-03-06T22:28:49.779Z,-48
2023-03-06T22:38:56.115Z,-48
2023-03-06T22:49:02.414Z,-49
2023-03-06T22:59:08.786Z,-51
2023-03-06T23:09:16.742Z,-51
2023-03-06T23:19:24.705Z,-51
2023-03-06T23:29:32.628Z,-49
2023-03-06T23:39:40.652Z,-49
2023-03-06T23:49:46.952Z,-51
2023-03-06T23:59:53.284Z,-49
